createdAt,value
2023-01-07T00:01:40.111Z,41.40
2023-01-07T00:04:08.880Z,42.20
2023-01-07T00:06:38.106Z,43.53
2023-01-07T00:09:07.039Z,47.95
2023-01-07T00:11:37.061Z,44.92
2023-01-07T00:14:06.949Z,45.75
2023-01-07T00:16:35.890Z,39.58
2023-01-07T00:19:05.510Z,44.60
2023-01-07T00:21:33.672Z,42.20
2023-01-07T00:24:03.435Z,40.88
2023-01-07T00:26:33.170Z,40.33
2023-01-07T00:29:00.497Z,44.53
2023-01-07T00:31:32.919Z,39.80
2023-01-07T00:34:00.320Z,41.17
2023-01-07T00:36:30.820Z,44.22
2023-01-07T00:38:59.938Z,43.72
2023-01-07T00:41:27.453Z,40.47
2023-01-07T00:43:55.021Z,38.22
2023-01-07T00:46:22.406Z,37.35
2023-01-07T00:48:49.595Z,37.83
2023-01-07T00:51:18.313Z,39.35
2023-01-07T00:53:45.317Z,38.40
2023-01-07T00:56:15.021Z,39.42
2023-01-07T00:58:42.352Z,36.60
2023-01-07T01:01:10.547Z,45.85
2023-01-07T01:03:37.621Z,51.42
2023-01-07T01:06:15.073Z,40.17
2023-01-07T01:08:44.270Z,39.38
2023-01-07T01:11:12.854Z,37.60
2023-01-07T01:13:40.433Z,43.28
2023-01-07T01:16:09.753Z,41.28
2023-01-07T01:18:37.320Z,42.13
2023-01-07T01:21:06.835Z,39.45
2023-01-07T01:23:34.057Z,34.75
2023-01-07T01:26:15.455Z,38.75
2023-01-07T01:28:43.975Z,37.97
2023-01-07T01:31:11.655Z,42.65
2023-01-07T01:33:38.602Z,38.42
2023-01-07T01:36:08.188Z,37.80
2023-01-07T01:38:35.079Z,38.50
2023-01-07T01:41:01.971Z,39.08
2023-01-07T01:43:35.137Z,45.35
2023-01-07T01:46:12.648Z,44.40
2023-01-07T01:48:46.465Z,38.80
2023-01-07T01:51:15.643Z,36.80
2023-01-07T01:53:42.781Z,38.25
2023-01-07T01:56:12.971Z,36.58
2023-01-07T01:58:45.399Z,40.17
2023-01-07T02:01:13.627Z,45.25
2023-01-07T02:03:40.589Z,39.67
2023-01-07T02:06:14.542Z,44.15
2023-01-07T02:08:41.377Z,44.45
2023-01-07T02:11:20.475Z,43.30
2023-01-07T02:14:13.488Z,41.90
2023-01-07T02:16:58.769Z,52.00
2023-01-07T02:19:46.539Z,52.10
2023-01-07T02:22:21.951Z,48.28
2023-01-07T02:25:19.443Z,47.05
2023-01-07T02:28:15.193Z,50.03
2023-01-07T02:31:00.546Z,45.22
2023-01-07T02:33:40.995Z,48.40
2023-01-07T02:36:12.818Z,45.20
2023-01-07T02:39:14.860Z,43.70
2023-01-07T02:41:51.227Z,47.17
2023-01-07T02:44:56.484Z,58.58
2023-01-07T02:47:32.165Z,59.30
2023-01-07T02:49:59.036Z,55.42
2023-01-07T02:52:28.706Z,56.42
2023-01-07T02:55:24.884Z,62.10
2023-01-07T02:58:06.388Z,65.45
2023-01-07T03:00:49.011Z,69.68
2023-01-07T03:04:06.354Z,71.63
2023-01-07T03:06:53.853Z,68.80
2023-01-07T03:12:33.868Z,64.28
2023-01-07T03:15:13.947Z,73.57
2023-01-07T03:17:52.349Z,70.78
2023-01-07T03:20:22.707Z,74.40
2023-01-07T03:22:51.027Z,72.47
2023-01-07T03:25:21.700Z,70.07
2023-01-07T03:27:50.612Z,73.85
2023-01-07T03:30:18.947Z,75.68
2023-01-07T03:33:14.679Z,71.80
2023-01-07T03:35:45.599Z,75.05
2023-01-07T03:38:13.215Z,85.78
2023-01-07T03:40:40.155Z,77.72
2023-01-07T03:43:13.378Z,72.88
2023-01-07T03:45:41.650Z,67.95
2023-01-07T03:48:08.545Z,62.35
2023-01-07T03:50:35.585Z,73.28
2023-01-07T03:53:02.487Z,67.75
2023-01-07T03:55:29.291Z,68.57
2023-01-07T03:57:56.923Z,66.93
2023-01-07T04:00:24.343Z,57.28
2023-01-07T04:02:51.446Z,69.72
2023-01-07T04:05:18.357Z,64.32
2023-01-07T04:07:45.210Z,50.80
2023-01-07T04:10:12.053Z,52.53
2023-01-07T04:12:38.905Z,47.95
2023-01-07T04:15:06.522Z,45.97
2023-01-07T04:17:33.456Z,60.70
2023-01-07T04:20:00.282Z,55.60
2023-01-07T04:22:27.454Z,51.45
2023-01-07T04:24:54.284Z,47.85
2023-01-07T04:27:21.107Z,46.03
2023-01-07T04:29:48.034Z,51.63
2023-01-07T04:32:14.845Z,54.25
2023-01-07T04:34:41.659Z,50.95
2023-01-07T04:37:08.507Z,47.92
2023-01-07T04:39:35.307Z,45.13
2023-01-07T04:42:02.116Z,50.97
2023-01-07T04:44:28.942Z,51.53
2023-01-07T04:46:55.743Z,55.00
2023-01-07T04:49:22.610Z,48.03
2023-01-07T04:51:49.560Z,47.08
2023-01-07T04:54:16.369Z,49.65
2023-01-07T04:56:43.298Z,49.42
2023-01-07T04:59:10.205Z,42.47
2023-01-07T05:01:37.177Z,47.03
2023-01-07T05:04:04.406Z,43.53
2023-01-07T05:06:31.250Z,42.75
2023-01-07T05:08:58.275Z,48.42
2023-01-07T05:11:25.101Z,43.45
2023-01-07T05:13:52.385Z,38.78
2023-01-07T05:16:19.455Z,45.92
2023-01-07T05:18:46.435Z,43.30
2023-01-07T05:21:13.320Z,46.28
2023-01-07T05:23:40.248Z,48.35
2023-01-07T05:26:07.266Z,44.65
2023-01-07T05:28:34.770Z,53.55
2023-01-07T05:31:01.700Z,49.15
2023-01-07T05:33:28.940Z,53.47
2023-01-07T05:35:55.829Z,53.40
2023-01-07T05:38:22.731Z,57.75
2023-01-07T05:40:50.249Z,70.75
2023-01-07T05:43:17.787Z,52.08
2023-01-07T05:45:46.187Z,65.90
2023-01-07T05:48:14.335Z,60.75
2023-01-07T05:50:41.838Z,52.67
2023-01-07T05:53:10.040Z,51.40
2023-01-07T05:55:38.768Z,55.58
2023-01-07T05:58:07.241Z,61.28
2023-01-07T06:00:35.278Z,48.35
2023-01-07T06:03:02.215Z,62.08
2023-01-07T06:05:29.177Z,57.40
2023-01-07T06:07:56.070Z,62.92
2023-01-07T06:10:23.027Z,48.85
2023-01-07T06:12:51.457Z,52.08
2023-01-07T06:15:18.793Z,62.50
2023-01-07T06:17:45.665Z,48.20
2023-01-07T06:20:15.042Z,62.55
2023-01-07T06:22:43.187Z,60.53
2023-01-07T06:25:11.472Z,44.85
2023-01-07T06:27:40.818Z,71.13
2023-01-07T06:30:11.851Z,36.78
2023-01-07T06:32:40.475Z,46.38
2023-01-07T06:35:09.590Z,43.17
2023-01-07T06:37:36.415Z,60.30
2023-01-07T06:40:04.021Z,69.35
2023-01-07T06:42:30.836Z,53.72
2023-01-07T06:44:57.653Z,50.22
2023-01-07T06:47:25.722Z,58.38
2023-01-07T06:49:52.959Z,48.92
2023-01-07T06:52:19.883Z,53.80
2023-01-07T06:54:48.512Z,56.17
2023-01-07T06:57:15.564Z,66.65
2023-01-07T06:59:42.448Z,47.47
2023-01-07T07:02:21.118Z,85.32
2023-01-07T07:04:47.995Z,50.15
2023-01-07T07:07:16.128Z,55.40
2023-01-07T07:09:43.535Z,68.35
2023-01-07T07:12:10.482Z,68.22
2023-01-07T07:14:37.358Z,139.45
2023-01-07T07:17:04.859Z,130.05
2023-01-07T07:19:31.724Z,43.83
2023-01-07T07:21:58.706Z,109.50
2023-01-07T07:24:25.648Z,88.78
2023-01-07T07:26:52.877Z,67.25
2023-01-07T07:29:21.644Z,59.08
2023-01-07T07:31:48.749Z,56.55
2023-01-07T07:34:15.643Z,82.85
2023-01-07T07:36:42.587Z,95.95
2023-01-07T07:39:10.823Z,74.45
2023-01-07T07:41:37.627Z,68.80
2023-01-07T07:44:04.571Z,111.40
2023-01-07T07:46:32.138Z,79.57
2023-01-07T07:48:59.069Z,93.07
2023-01-07T07:51:25.951Z,77.25
2023-01-07T07:53:52.872Z,66.40
2023-01-07T07:56:19.737Z,57.88
2023-01-07T07:58:46.541Z,90.63
2023-01-07T08:01:13.485Z,67.53
2023-01-07T08:03:40.416Z,79.22
2023-01-07T08:06:07.392Z,82.38
2023-01-07T08:08:34.226Z,87.47
2023-01-07T08:11:02.697Z,101.95
2023-01-07T08:13:30.479Z,96.80
2023-01-07T08:15:58.240Z,82.63
2023-01-07T08:18:25.350Z,109.80
2023-01-07T08:20:52.245Z,125.25
2023-01-07T08:23:19.123Z,139.43
2023-01-07T08:25:46.062Z,116.03
2023-01-07T08:28:13.083Z,116.95
2023-01-07T08:30:40.017Z,73.15
2023-01-07T08:33:08.210Z,105.10
2023-01-07T08:35:35.300Z,74.35
2023-01-07T08:38:11.013Z,84.20
2023-01-07T08:40:38.672Z,77.47
2023-01-07T08:43:07.278Z,82.22
2023-01-07T08:45:34.916Z,80.07
2023-01-07T08:48:01.877Z,75.22
2023-01-07T08:50:30.738Z,68.60
2023-01-07T08:52:58.272Z,66.85
2023-01-07T08:55:25.679Z,72.68
2023-01-07T08:57:53.226Z,61.83
2023-01-07T09:00:20.418Z,52.65
2023-01-07T09:02:47.347Z,60.60
2023-01-07T09:05:14.475Z,65.45
2023-01-07T09:07:41.374Z,71.13
2023-01-07T09:10:10.069Z,72.07
2023-01-07T09:12:37.269Z,43.60
2023-01-07T09:15:04.731Z,41.95
2023-01-07T09:17:31.530Z,49.72
2023-01-07T09:19:58.849Z,51.30
2023-01-07T09:22:25.733Z,48.42
2023-01-07T09:24:52.551Z,53.17
2023-01-07T09:27:19.396Z,43.45
2023-01-07T09:29:46.328Z,52.72
2023-01-07T09:32:13.191Z,41.20
2023-01-07T09:34:40.194Z,45.72
2023-01-07T09:37:07.630Z,48.83
2023-01-07T09:39:34.485Z,48.67
2023-01-07T09:42:33.760Z,49.20
2023-01-07T09:45:17.111Z,46.70
2023-01-07T09:47:47.358Z,48.13
2023-01-07T09:50:25.976Z,43.70
2023-01-07T09:52:56.626Z,66.15
2023-01-07T09:55:34.905Z,46.78
2023-01-07T09:58:02.070Z,44.30
2023-01-07T10:00:31.183Z,50.30
2023-01-07T10:03:12.878Z,44.25
2023-01-07T10:06:15.229Z,46.78
2023-01-07T10:08:54.143Z,42.65
2023-01-07T10:11:32.481Z,43.20
2023-01-07T10:14:17.476Z,44.03
2023-01-07T10:16:57.147Z,49.65
2023-01-07T10:19:35.876Z,48.72
2023-01-07T10:22:25.279Z,49.78
2023-01-07T10:24:59.118Z,48.00
2023-01-07T10:27:35.410Z,42.08
2023-01-07T10:30:11.255Z,50.13
2023-01-07T10:32:38.569Z,49.75
2023-01-07T10:35:13.559Z,47.50
2023-01-07T10:37:42.411Z,49.30
2023-01-07T10:40:38.582Z,54.47
2023-01-07T10:43:14.422Z,48.03
2023-01-07T10:45:59.262Z,50.83
2023-01-07T10:48:26.076Z,51.88
2023-01-07T10:51:07.147Z,45.30
2023-01-07T10:53:55.782Z,47.70
2023-01-07T10:56:36.660Z,48.05
2023-01-07T10:59:04.036Z,45.88
2023-01-07T11:01:41.123Z,51.90
2023-01-07T11:04:15.173Z,47.85
2023-01-07T11:06:49.940Z,47.67
2023-01-07T11:09:37.172Z,52.58
2023-01-07T11:12:34.293Z,52.95
2023-01-07T11:15:05.625Z,49.63
2023-01-07T11:17:39.358Z,48.70
2023-01-07T11:20:07.008Z,42.30
2023-01-07T11:22:36.761Z,44.92
2023-01-07T11:25:27.720Z,42.33
2023-01-07T11:27:58.773Z,55.08
2023-01-07T11:30:28.462Z,41.67
2023-01-07T11:33:07.012Z,44.05
2023-01-07T11:35:34.063Z,40.42
2023-01-07T11:38:00.892Z,43.88
2023-01-07T11:40:30.698Z,115.22
2023-01-07T11:43:20.364Z,42.17
2023-01-07T11:46:19.104Z,52.63
2023-01-07T11:49:01.101Z,32.83
2023-01-07T11:51:40.077Z,38.55
2023-01-07T11:54:22.444Z,39.75
2023-01-07T11:56:49.638Z,39.95
2023-01-07T11:59:27.008Z,40.85
2023-01-07T12:01:59.744Z,43.25
2023-01-07T12:04:31.587Z,41.42
2023-01-07T12:07:02.513Z,49.70
2023-01-07T12:09:32.048Z,50.47
2023-01-07T12:12:07.447Z,187.90
2023-01-07T12:14:38.365Z,51.17
2023-01-07T12:17:16.068Z,49.88
2023-01-07T12:19:54.763Z,53.17
2023-01-07T12:22:21.555Z,54.42
2023-01-07T12:24:57.414Z,57.97
2023-01-07T12:27:39.611Z,60.22
2023-01-07T12:30:30.352Z,55.53
2023-01-07T12:33:09.289Z,61.35
2023-01-07T12:35:40.331Z,47.58
2023-01-07T12:38:30.272Z,76.03
2023-01-07T12:41:01.844Z,54.60
2023-01-07T12:43:32.681Z,53.58
2023-01-07T12:46:02.763Z,48.15
2023-01-07T12:48:35.884Z,49.75
2023-01-07T12:53:36.764Z,52.97
2023-01-07T12:56:11.535Z,53.17
2023-01-07T12:58:52.068Z,50.55
2023-01-07T13:01:28.231Z,53.72
2023-01-07T13:04:25.989Z,56.92
2023-01-07T13:07:05.689Z,55.35
2023-01-07T13:09:43.075Z,54.85
2023-01-07T13:12:42.541Z,55.55
2023-01-07T13:15:15.374Z,53.63
2023-01-07T13:17:43.419Z,62.38
2023-01-07T13:20:15.424Z,47.60
2023-01-07T13:22:45.416Z,48.38
2023-01-07T13:25:20.867Z,48.33
2023-01-07T13:28:07.490Z,59.83
2023-01-07T13:30:52.903Z,55.17
2023-01-07T13:33:37.227Z,64.85
2023-01-07T13:36:31.061Z,60.42
2023-01-07T13:39:04.104Z,58.20
2023-01-07T13:42:06.536Z,57.00
2023-01-07T13:45:02.027Z,58.72
2023-01-07T13:47:53.585Z,69.28
2023-01-07T13:50:37.492Z,67.15
2023-01-07T13:53:27.377Z,75.55
2023-01-07T13:56:16.638Z,67.18
2023-01-07T13:58:56.130Z,89.65
2023-01-07T14:01:32.922Z,77.80
2023-01-07T14:04:19.735Z,79.75
2023-01-07T14:06:52.130Z,87.05
2023-01-07T14:09:25.325Z,113.55
2023-01-07T14:12:03.872Z,86.10
2023-01-07T14:14:38.325Z,93.88
2023-01-07T14:17:50.738Z,78.13
2023-01-07T14:20:50.270Z,86.28
2023-01-07T14:23:35.887Z,94.38
2023-01-07T14:26:27.713Z,96.22
2023-01-07T14:29:12.082Z,91.40
2023-01-07T14:31:39.089Z,96.18
2023-01-07T14:34:26.880Z,86.50
2023-01-07T14:37:06.604Z,82.80
2023-01-07T14:39:44.816Z,96.90
2023-01-07T14:42:20.588Z,95.88
2023-01-07T14:44:49.249Z,83.07
2023-01-07T14:47:45.630Z,83.32
2023-01-07T14:50:34.575Z,82.05
2023-01-07T14:53:05.801Z,94.88
2023-01-07T14:55:49.759Z,93.85
2023-01-07T14:58:45.770Z,94.00
2023-01-07T15:02:00.557Z,86.97
2023-01-07T15:04:46.403Z,100.13
2023-01-07T15:07:20.829Z,97.80
2023-01-07T15:10:36.158Z,98.28
2023-01-07T15:13:22.846Z,103.63
2023-01-07T15:16:02.120Z,109.60
2023-01-07T15:18:31.334Z,103.43
2023-01-07T15:21:23.255Z,114.45
2023-01-07T15:24:17.447Z,105.30
2023-01-07T15:26:46.828Z,106.05
2023-01-07T15:29:31.234Z,113.15
2023-01-07T15:32:25.954Z,123.35
2023-01-07T15:34:52.864Z,127.63
2023-01-07T15:37:20.301Z,131.88
2023-01-07T15:39:52.175Z,102.85
2023-01-07T15:42:24.903Z,99.95
2023-01-07T15:44:57.475Z,94.82
2023-01-07T15:47:36.906Z,111.70
2023-01-07T15:50:19.256Z,107.97
2023-01-07T15:52:53.412Z,111.63
2023-01-07T15:55:45.326Z,116.38
2023-01-07T15:58:32.454Z,120.13
2023-01-07T16:01:00.842Z,130.07
2023-01-07T16:03:28.900Z,118.43
2023-01-07T16:05:56.379Z,117.50
2023-01-07T16:08:30.878Z,115.82
2023-01-07T16:11:06.626Z,122.78
2023-01-07T16:13:36.943Z,123.32
2023-01-07T16:16:06.020Z,113.35
2023-01-07T16:18:33.003Z,115.85
2023-01-07T16:21:07.515Z,117.05
2023-01-07T16:23:36.937Z,109.68
2023-01-07T16:26:05.932Z,116.45
2023-01-07T16:28:48.983Z,125.65
2023-01-07T16:31:18.966Z,126.97
2023-01-07T16:33:47.354Z,130.15
2023-01-07T16:36:20.442Z,125.32
2023-01-07T16:41:25.880Z,133.32
2023-01-07T16:44:00.156Z,129.13
2023-01-07T16:46:28.130Z,131.80
2023-01-07T16:49:19.951Z,132.25
2023-01-07T16:51:52.861Z,120.72
2023-01-07T16:54:25.694Z,144.38
2023-01-07T16:56:58.055Z,129.02
2023-01-07T16:59:34.553Z,135.77
2023-01-07T17:02:30.986Z,123.85
2023-01-07T17:05:17.567Z,130.80
2023-01-07T17:07:49.100Z,122.47
2023-01-07T17:10:30.908Z,132.23
2023-01-07T17:13:13.719Z,121.15
2023-01-07T17:15:42.471Z,124.07
2023-01-07T17:18:12.372Z,131.63
2023-01-07T17:20:44.728Z,118.55
2023-01-07T17:23:26.971Z,125.90
2023-01-07T17:26:04.671Z,126.45
2023-01-07T17:28:34.517Z,129.50
2023-01-07T17:31:01.859Z,125.80
2023-01-07T17:33:29.540Z,142.30
2023-01-07T17:35:59.284Z,130.90
2023-01-07T17:38:26.096Z,144.85
2023-01-07T17:40:54.680Z,134.27
2023-01-07T17:43:35.035Z,134.07
2023-01-07T17:46:03.970Z,124.57
2023-01-07T17:48:32.422Z,119.50
2023-01-07T17:51:10.098Z,113.53
2023-01-07T17:53:43.752Z,123.85
2023-01-07T17:56:10.900Z,117.18
2023-01-07T17:58:41.073Z,113.15
2023-01-07T18:01:10.639Z,128.20
2023-01-07T18:03:37.705Z,132.43
2023-01-07T18:06:14.815Z,143.65
2023-01-07T18:08:41.666Z,134.38
2023-01-07T18:11:30.847Z,111.55
2023-01-07T18:14:00.310Z,188.02
2023-01-07T18:16:27.747Z,144.80
2023-01-07T18:18:54.742Z,154.55
2023-01-07T18:21:21.628Z,143.32
2023-01-07T18:23:48.671Z,136.35
2023-01-07T18:26:16.520Z,125.88
2023-01-07T18:28:43.797Z,134.13
2023-01-07T18:31:10.895Z,111.63
2023-01-07T18:33:38.473Z,128.35
2023-01-07T18:36:05.642Z,112.50
2023-01-07T18:38:32.647Z,127.55
2023-01-07T18:40:59.713Z,114.53
2023-01-07T18:43:26.539Z,118.47
2023-01-07T18:45:53.425Z,108.97
2023-01-07T18:48:21.159Z,109.53
2023-01-07T18:50:49.538Z,110.18
2023-01-07T18:53:18.351Z,108.22
2023-01-07T18:55:46.671Z,110.15
2023-01-07T18:58:15.251Z,101.57
2023-01-07T19:00:42.531Z,110.22
2023-01-07T19:03:10.768Z,102.10
2023-01-07T19:05:39.258Z,105.13
2023-01-07T19:08:06.188Z,96.57
2023-01-07T19:10:33.104Z,99.53
2023-01-07T19:13:00.564Z,94.22
2023-01-07T19:15:27.417Z,100.68
2023-01-07T19:17:54.267Z,89.78
2023-01-07T19:20:21.113Z,90.90
2023-01-07T19:22:47.956Z,92.57
2023-01-07T19:25:14.915Z,79.45
2023-01-07T19:27:41.745Z,81.38
2023-01-07T19:30:09.336Z,75.18
2023-01-07T19:32:36.264Z,84.32
2023-01-07T19:35:03.213Z,87.25
2023-01-07T19:37:30.041Z,84.63
2023-01-07T19:39:57.077Z,82.45
2023-01-07T19:42:24.230Z,83.70
2023-01-07T19:44:51.064Z,77.13
2023-01-07T19:47:17.919Z,79.93
2023-01-07T19:49:45.423Z,87.03
2023-01-07T19:52:13.593Z,78.22
2023-01-07T19:54:41.206Z,80.00
2023-01-07T19:57:08.170Z,80.35
2023-01-07T19:59:35.118Z,75.35
2023-01-07T20:02:03.209Z,69.45
2023-01-07T20:04:30.348Z,66.35
2023-01-07T20:06:57.175Z,80.47
2023-01-07T20:09:24.041Z,65.47
2023-01-07T20:11:54.005Z,63.80
2023-01-07T20:14:20.861Z,76.60
2023-01-07T20:16:47.893Z,75.93
2023-01-07T20:19:14.803Z,74.95
2023-01-07T20:21:41.784Z,79.70
2023-01-07T20:24:09.702Z,67.90
2023-01-07T20:26:38.230Z,69.70
2023-01-07T20:29:05.406Z,78.20
2023-01-07T20:31:32.655Z,69.82
2023-01-07T20:34:00.191Z,81.93
2023-01-07T20:36:29.850Z,66.90
2023-01-07T20:38:56.751Z,62.83
2023-01-07T20:41:26.666Z,71.20
2023-01-07T20:43:58.865Z,80.50
2023-01-07T20:46:27.260Z,79.87
2023-01-07T20:48:54.832Z,66.35
2023-01-07T20:51:22.020Z,77.68
2023-01-07T20:53:48.942Z,69.15
2023-01-07T20:56:18.945Z,72.78
2023-01-07T20:58:46.746Z,68.03
2023-01-07T21:01:16.395Z,71.97
2023-01-07T21:03:43.555Z,70.88
2023-01-07T21:06:13.430Z,73.50
2023-01-07T21:08:40.642Z,73.35
2023-01-07T21:11:19.363Z,79.03
2023-01-07T21:13:47.516Z,70.43
2023-01-07T21:16:14.790Z,76.35
2023-01-07T21:18:41.855Z,78.25
2023-01-07T21:21:19.163Z,71.18
2023-01-07T21:23:49.687Z,70.60
2023-01-07T21:26:16.945Z,56.75
2023-01-07T21:28:44.347Z,74.10
2023-01-07T21:31:15.648Z,67.57
2023-01-07T21:33:43.194Z,67.43
2023-01-07T21:36:15.874Z,69.28
2023-01-07T21:38:43.302Z,70.18
2023-01-07T21:41:15.920Z,41.03
2023-01-07T21:43:43.586Z,71.03
2023-01-07T21:46:11.214Z,75.90
2023-01-07T21:48:40.241Z,72.13
2023-01-07T21:51:10.780Z,69.18
2023-01-07T21:53:37.707Z,74.78
2023-01-07T21:56:09.371Z,286.13
2023-01-07T21:58:37.666Z,76.90
2023-01-07T22:01:08.420Z,73.20
2023-01-07T22:03:37.319Z,79.60
2023-01-07T22:06:13.389Z,72.95
2023-01-07T22:08:40.235Z,71.85
2023-01-07T22:11:07.437Z,64.90
2023-01-07T22:13:34.230Z,74.90
2023-01-07T22:16:04.364Z,66.53
2023-01-07T22:18:31.473Z,56.40
2023-01-07T22:20:58.366Z,57.60
2023-01-07T22:23:25.274Z,54.47
2023-01-07T22:25:52.253Z,54.67
2023-01-07T22:28:21.907Z,49.42
2023-01-07T22:30:57.654Z,42.70
2023-01-07T22:33:24.457Z,46.80
2023-01-07T22:35:51.858Z,43.78
2023-01-07T22:38:22.271Z,40.55
2023-01-07T22:40:49.426Z,37.53
2023-01-07T22:43:18.936Z,39.33
2023-01-07T22:45:58.001Z,33.05
2023-01-07T22:48:27.414Z,37.30
2023-01-07T22:50:59.553Z,34.15
2023-01-07T22:53:27.983Z,37.58
2023-01-07T22:55:54.802Z,35.00
2023-01-07T22:58:21.654Z,35.47
2023-01-07T23:00:51.760Z,43.05
2023-01-07T23:03:23.174Z,31.35
2023-01-07T23:05:50.946Z,34.90
2023-01-07T23:08:18.242Z,38.38
2023-01-07T23:10:45.567Z,34.72
2023-01-07T23:13:12.867Z,34.67
2023-01-07T23:15:40.213Z,35.20
2023-01-07T23:18:08.940Z,43.45
2023-01-07T23:20:40.043Z,31.30
2023-01-07T23:23:07.734Z,32.20
2023-01-07T23:25:35.659Z,33.08
2023-01-07T23:28:03.740Z,35.92
2023-01-07T23:30:30.581Z,31.48
2023-01-07T23:32:57.490Z,35.83
2023-01-07T23:35:24.310Z,30.17
2023-01-07T23:37:51.117Z,150.05
2023-01-07T23:40:18.860Z,41.00
2023-01-07T23:42:46.363Z,29.38
2023-01-07T23:45:13.171Z,35.33
2023-01-07T23:47:40.044Z,38.35
2023-01-07T23:50:07.507Z,26.48
2023-01-07T23:52:34.451Z,32.85
2023-01-07T23:55:01.308Z,29.25
2023-01-07T23:57:28.660Z,21.48
2023-01-07T23:59:55.532Z,29.05
